Au Train, Michigan
Current Conditions -  °F | °C
As of 1:45 PM on Saturday 25 Oct 2014 (Local Time) from KSAW Reporting Station
Clear Clear  
Wind Chill: 55°   Ceiling: Unl
Heat Index: 55°   Visibility: 10mi
Dew Point: 34°   Wind: 25mph
Humidity: 44%   Direction: 290°WNW
Pressure: 29.71"   Gusts: 30mph
Location:  46.43°N, 86.84°W
Report Text: KSAW 251745Z 29022G26KT 10SM SKC 13/01 A2971
Loading
Personal Weather Stations






























Interactive Weather Map
Tropical Storm Tracking
New forecast layout! Learn more

10-Day Weather Forecast

Advertisements
Track Severe Weather on mobile